createdAt,value
2023-05-25T00:01:01.370Z,0.28
2023-05-25T00:03:32.680Z,0.22
2023-05-25T00:06:02.038Z,0.38
2023-05-25T00:08:30.704Z,0.20
2023-05-25T00:10:58.758Z,0.30
2023-05-25T00:13:27.079Z,0.20
2023-05-25T00:15:55.258Z,0.25
2023-05-25T00:18:25.011Z,0.22
2023-05-25T00:20:55.133Z,0.30
2023-05-25T00:23:23.391Z,0.20
2023-05-25T00:25:51.492Z,0.20
2023-05-25T00:28:19.593Z,0.20
2023-05-25T00:30:47.617Z,0.20
2023-05-25T00:33:15.791Z,0.20
2023-05-25T00:35:44.739Z,0.20
2023-05-25T00:38:16.235Z,0.20
2023-05-25T00:40:44.747Z,0.30
2023-05-25T00:43:13.792Z,0.20
2023-05-25T00:45:42.010Z,0.30
2023-05-25T00:48:11.145Z,0.30
2023-05-25T00:50:42.689Z,0.20
2023-05-25T00:53:12.862Z,0.28
2023-05-25T00:55:46.705Z,0.20
2023-05-25T00:58:16.462Z,0.20
2023-05-25T01:00:49.477Z,0.20
2023-05-25T01:03:22.224Z,0.20
2023-05-25T01:05:54.970Z,0.17
2023-05-25T01:08:25.519Z,0.20
2023-05-25T01:10:57.072Z,0.20
2023-05-25T01:13:25.307Z,0.20
2023-05-25T01:15:54.199Z,0.30
2023-05-25T01:18:22.208Z,0.20
2023-05-25T01:21:13.448Z,0.28
2023-05-25T01:23:48.260Z,0.30
2023-05-25T01:26:19.415Z,0.30
2023-05-25T01:28:52.708Z,0.20
2023-05-25T01:31:23.392Z,0.30
2023-05-25T01:33:52.764Z,0.20
2023-05-25T01:36:22.501Z,0.30
2023-05-25T01:38:51.172Z,0.30
2023-05-25T01:41:19.290Z,0.20
2023-05-25T01:43:47.485Z,0.20
2023-05-25T01:46:24.050Z,0.30
2023-05-25T01:49:01.437Z,0.20
2023-05-25T01:51:37.787Z,0.30
2023-05-25T01:54:12.509Z,0.30
2023-05-25T01:56:42.830Z,0.25
2023-05-25T01:59:12.522Z,0.30
2023-05-25T02:01:42.669Z,0.25
2023-05-25T02:04:11.151Z,0.30
2023-05-25T02:06:40.661Z,0.22
2023-05-25T02:09:09.167Z,0.20
2023-05-25T02:11:37.202Z,0.20
2023-05-25T02:14:05.479Z,0.20
2023-05-25T02:16:33.614Z,0.20
2023-05-25T02:19:01.736Z,0.30
2023-05-25T02:21:29.770Z,0.30
2023-05-25T02:23:59.108Z,0.20
2023-05-25T02:26:27.398Z,0.30
2023-05-25T02:28:55.650Z,0.20
2023-05-25T02:31:23.742Z,0.20
2023-05-25T02:33:51.746Z,0.30
2023-05-25T02:36:21.197Z,0.30
2023-05-25T02:38:52.150Z,0.20
2023-05-25T02:41:22.082Z,0.20
2023-05-25T02:43:50.085Z,0.20
2023-05-25T02:46:18.173Z,0.30
2023-05-25T02:48:46.668Z,0.30
2023-05-25T02:51:15.104Z,0.30
2023-05-25T02:53:43.449Z,0.30
2023-05-25T02:56:11.478Z,0.30
2023-05-25T02:58:41.220Z,0.20
2023-05-25T03:01:18.930Z,0.30
2023-05-25T03:03:54.818Z,0.20
2023-05-25T03:06:26.391Z,0.25
2023-05-25T03:09:07.416Z,0.25
2023-05-25T03:11:35.755Z,0.30
2023-05-25T03:14:07.321Z,0.30
2023-05-25T03:16:38.939Z,0.20
2023-05-25T03:19:07.495Z,0.20
2023-05-25T03:21:38.595Z,0.30
2023-05-25T03:24:08.273Z,0.30
2023-05-25T03:26:36.524Z,0.30
2023-05-25T03:29:09.222Z,0.25
2023-05-25T03:31:37.247Z,0.20
2023-05-25T03:34:07.217Z,0.20
2023-05-25T03:36:39.088Z,0.20
2023-05-25T03:39:10.107Z,0.20
2023-05-25T03:41:38.272Z,0.30
2023-05-25T03:44:08.056Z,0.20
2023-05-25T03:46:36.386Z,0.17
2023-05-25T03:49:04.422Z,0.20
2023-05-25T03:51:32.407Z,0.10
2023-05-25T03:54:01.553Z,0.10
2023-05-25T03:56:29.549Z,0.20
2023-05-25T03:58:58.041Z,0.20
2023-05-25T04:01:30.084Z,0.20
2023-05-25T04:03:58.530Z,0.20
2023-05-25T04:06:26.630Z,0.15
2023-05-25T04:08:55.399Z,0.17
2023-05-25T04:11:24.746Z,0.10
2023-05-25T04:13:52.999Z,0.10
2023-05-25T04:16:21.821Z,0.10
2023-05-25T04:18:51.600Z,0.10
2023-05-25T04:21:21.174Z,0.10
2023-05-25T04:23:49.405Z,0.10
2023-05-25T04:26:17.630Z,0.00
2023-05-25T04:28:48.340Z,0.00
2023-05-25T04:31:29.644Z,0.00
2023-05-25T04:34:15.082Z,0.00
2023-05-25T04:36:53.763Z,0.00
2023-05-25T04:39:22.113Z,0.00
2023-05-25T04:41:54.278Z,0.00
2023-05-25T04:44:22.356Z,0.00
2023-05-25T04:46:53.719Z,0.00
2023-05-25T04:49:29.375Z,0.00
2023-05-25T04:51:57.674Z,0.00
2023-05-25T04:54:26.845Z,0.00
2023-05-25T04:56:54.865Z,0.00
2023-05-25T04:59:22.881Z,0.00
2023-05-25T05:01:51.083Z,0.00
2023-05-25T05:04:19.210Z,0.00
2023-05-25T05:06:51.962Z,0.00
2023-05-25T05:09:22.806Z,0.00
2023-05-25T05:11:50.905Z,0.00
2023-05-25T05:14:20.141Z,0.00
2023-05-25T05:16:48.862Z,0.00
2023-05-25T05:19:17.093Z,0.00
2023-05-25T05:21:45.804Z,0.00
2023-05-25T05:24:16.001Z,0.00
2023-05-25T05:26:57.233Z,0.00
2023-05-25T05:29:34.872Z,0.00
2023-05-25T05:32:03.058Z,0.00
2023-05-25T05:34:31.650Z,0.00
2023-05-25T05:37:04.015Z,0.00
2023-05-25T05:39:33.497Z,0.00
2023-05-25T05:42:01.654Z,0.00
2023-05-25T05:44:29.923Z,0.00
2023-05-25T05:47:01.834Z,0.00
2023-05-25T05:49:31.965Z,0.00
2023-05-25T05:52:02.198Z,0.00
2023-05-25T05:54:30.304Z,0.00
2023-05-25T05:57:03.431Z,0.00
2023-05-25T05:59:31.617Z,0.00
2023-05-25T06:01:59.781Z,0.00
2023-05-25T06:04:29.153Z,0.00
2023-05-25T06:06:59.000Z,0.00
2023-05-25T06:09:27.532Z,0.00
2023-05-25T06:11:59.367Z,0.00
2023-05-25T06:14:29.056Z,0.00
2023-05-25T06:17:00.533Z,0.00
2023-05-25T06:19:28.829Z,0.00
2023-05-25T06:21:56.994Z,0.00
2023-05-25T06:24:24.954Z,0.00
2023-05-25T06:26:52.960Z,0.00
2023-05-25T06:29:21.559Z,0.00
2023-05-25T06:31:51.153Z,0.00
2023-05-25T06:34:19.826Z,0.00
2023-05-25T06:36:47.956Z,0.00
2023-05-25T06:39:16.487Z,0.00
2023-05-25T06:41:44.759Z,0.00
2023-05-25T06:44:17.070Z,0.00
2023-05-25T06:46:48.433Z,0.00
2023-05-25T06:49:19.454Z,0.00
2023-05-25T06:51:49.001Z,0.00
2023-05-25T06:54:17.210Z,0.00
2023-05-25T06:56:45.244Z,0.00
2023-05-25T06:59:13.323Z,0.00
2023-05-25T07:01:41.623Z,0.00
2023-05-25T07:04:09.940Z,0.00
2023-05-25T07:06:39.309Z,0.00
2023-05-25T07:09:07.341Z,0.00
2023-05-25T07:11:35.349Z,0.00
2023-05-25T07:14:03.417Z,0.00
2023-05-25T07:16:32.004Z,0.00
2023-05-25T07:19:00.531Z,0.00
2023-05-25T07:21:28.893Z,0.00
2023-05-25T07:23:58.254Z,0.00
2023-05-25T07:26:27.240Z,0.00
2023-05-25T07:28:55.292Z,0.00
2023-05-25T07:31:23.418Z,0.00
2023-05-25T07:33:51.750Z,0.00
2023-05-25T07:36:20.839Z,0.00
2023-05-25T07:38:49.015Z,0.00
2023-05-25T07:41:18.425Z,0.00
2023-05-25T07:43:46.675Z,0.00
2023-05-25T07:46:14.670Z,0.00
2023-05-25T07:48:42.707Z,0.00
2023-05-25T07:51:10.791Z,0.00
2023-05-25T07:53:39.328Z,0.00
2023-05-25T07:56:10.547Z,0.00
2023-05-25T07:58:40.201Z,0.00
2023-05-25T08:01:08.217Z,0.00
2023-05-25T08:03:49.045Z,0.00
2023-05-25T08:06:18.294Z,0.00
2023-05-25T08:08:47.384Z,0.00
2023-05-25T08:11:17.604Z,0.00
2023-05-25T08:13:46.964Z,0.00
2023-05-25T08:16:16.372Z,0.00
2023-05-25T08:18:47.059Z,0.00
2023-05-25T08:21:15.404Z,0.00
2023-05-25T08:23:43.958Z,0.00
2023-05-25T08:28:44.448Z,0.00
2023-05-25T08:31:13.991Z,0.00
2023-05-25T08:33:42.120Z,0.00
2023-05-25T08:36:10.329Z,0.00
2023-05-25T08:38:38.483Z,0.00
2023-05-25T08:41:08.005Z,0.00
2023-05-25T08:43:36.382Z,0.00
2023-05-25T08:46:05.965Z,0.00
2023-05-25T08:48:41.753Z,0.00
2023-05-25T08:51:12.230Z,0.00
2023-05-25T08:53:42.254Z,0.00
2023-05-25T08:56:18.368Z,0.00
2023-05-25T08:58:52.972Z,0.00
2023-05-25T09:01:23.809Z,0.00
2023-05-25T09:03:54.168Z,0.00
2023-05-25T09:06:23.827Z,0.00
2023-05-25T09:08:52.330Z,0.00
2023-05-25T09:11:35.923Z,0.00
2023-05-25T09:14:06.115Z,0.00
2023-05-25T09:16:34.862Z,0.00
2023-05-25T09:19:04.246Z,0.00
2023-05-25T09:21:32.713Z,0.00
2023-05-25T09:24:01.544Z,0.00
2023-05-25T09:26:29.665Z,0.00
2023-05-25T09:28:57.649Z,0.00
2023-05-25T09:31:26.000Z,0.00
2023-05-25T09:34:00.170Z,0.00
2023-05-25T09:36:30.017Z,0.00
2023-05-25T09:38:58.696Z,0.00
2023-05-25T09:41:30.039Z,0.00
2023-05-25T09:44:10.551Z,0.00
2023-05-25T09:46:40.466Z,0.00
2023-05-25T09:49:09.810Z,0.00
2023-05-25T09:51:39.512Z,0.00
2023-05-25T09:54:11.459Z,0.00
2023-05-25T09:56:39.732Z,0.00
2023-05-25T09:59:07.820Z,0.00
2023-05-25T10:01:36.743Z,0.00
2023-05-25T10:04:05.688Z,0.00
2023-05-25T10:06:34.620Z,0.00
2023-05-25T10:09:05.159Z,0.00
2023-05-25T10:11:36.265Z,0.00
2023-05-25T10:14:08.526Z,0.00
2023-05-25T10:16:41.191Z,0.00
2023-05-25T10:19:18.421Z,0.00
2023-05-25T10:21:52.562Z,0.00
2023-05-25T10:24:28.323Z,0.00
2023-05-25T10:27:07.792Z,0.00
2023-05-25T10:29:43.879Z,0.00
2023-05-25T10:32:12.314Z,0.00
2023-05-25T10:34:41.569Z,0.00
2023-05-25T10:37:10.550Z,0.00
2023-05-25T10:39:42.203Z,0.00
2023-05-25T10:42:11.402Z,0.00
2023-05-25T10:44:40.117Z,0.00
2023-05-25T10:47:08.672Z,0.00
2023-05-25T10:49:53.546Z,0.00
2023-05-25T10:52:21.615Z,0.00
2023-05-25T10:54:50.971Z,0.00
2023-05-25T10:57:25.438Z,0.00
2023-05-25T10:59:55.896Z,0.00
2023-05-25T11:02:24.523Z,0.00
2023-05-25T11:05:12.511Z,0.00
2023-05-25T11:07:54.000Z,0.00
2023-05-25T11:10:43.648Z,0.00
2023-05-25T11:13:36.477Z,0.00
2023-05-25T11:16:19.273Z,0.00
2023-05-25T11:18:51.947Z,0.00
2023-05-25T11:21:24.630Z,0.00
2023-05-25T11:23:57.271Z,0.00
2023-05-25T11:26:30.854Z,0.00
2023-05-25T11:28:59.959Z,0.00
2023-05-25T11:31:35.799Z,0.00
2023-05-25T11:34:07.153Z,0.00
2023-05-25T11:36:37.360Z,0.00
2023-05-25T11:39:17.028Z,0.00
2023-05-25T11:41:50.166Z,0.00
2023-05-25T11:44:28.262Z,0.00
2023-05-25T11:46:58.296Z,0.00
2023-05-25T11:49:26.574Z,0.00
2023-05-25T11:51:54.788Z,0.00
2023-05-25T11:54:24.271Z,0.00
2023-05-25T11:56:56.716Z,0.00
2023-05-25T11:59:27.227Z,0.00
2023-05-25T12:01:58.203Z,0.00
2023-05-25T12:04:26.279Z,0.00
2023-05-25T12:06:55.183Z,0.00
2023-05-25T12:09:23.617Z,0.00
2023-05-25T12:11:53.094Z,0.00
2023-05-25T12:14:21.139Z,0.00
2023-05-25T12:16:49.236Z,0.00
2023-05-25T12:19:17.505Z,0.00
2023-05-25T12:21:46.182Z,0.00
2023-05-25T12:24:14.469Z,0.00
2023-05-25T12:26:49.297Z,0.00
2023-05-25T12:29:18.838Z,0.00
2023-05-25T12:31:46.911Z,0.00
2023-05-25T12:34:16.297Z,0.00
2023-05-25T12:36:47.864Z,0.00
2023-05-25T12:39:17.270Z,0.00
2023-05-25T12:41:47.224Z,0.00
2023-05-25T12:44:22.273Z,0.00
2023-05-25T12:46:52.298Z,0.00
2023-05-25T12:49:31.273Z,0.00
2023-05-25T12:52:00.681Z,0.00
2023-05-25T12:54:44.013Z,0.00
2023-05-25T12:57:14.295Z,0.00
2023-05-25T12:59:45.445Z,0.00
2023-05-25T13:02:15.090Z,0.00
2023-05-25T13:04:44.747Z,0.00
2023-05-25T13:07:13.029Z,0.00
2023-05-25T13:09:41.040Z,0.00
2023-05-25T13:12:09.544Z,0.00
2023-05-25T13:14:37.860Z,0.00
2023-05-25T13:17:08.112Z,0.00
2023-05-25T13:19:36.158Z,0.00
2023-05-25T13:22:04.235Z,0.00
2023-05-25T13:24:32.726Z,0.00
2023-05-25T13:27:01.477Z,0.00
2023-05-25T13:29:29.468Z,0.00
2023-05-25T13:31:57.572Z,0.00
2023-05-25T13:34:27.088Z,0.00
2023-05-25T13:36:55.654Z,0.00
2023-05-25T13:39:23.731Z,0.00
2023-05-25T13:41:51.693Z,0.00
2023-05-25T13:44:19.713Z,0.00
2023-05-25T13:46:48.385Z,0.00
2023-05-25T13:49:19.519Z,0.00
2023-05-25T13:51:49.087Z,0.00
2023-05-25T13:54:18.714Z,0.00
2023-05-25T13:56:46.732Z,0.00
2023-05-25T13:59:14.773Z,0.00
2023-05-25T14:01:42.837Z,0.00
2023-05-25T14:04:11.953Z,0.00
2023-05-25T14:06:40.049Z,0.00
2023-05-25T14:09:09.978Z,0.00
2023-05-25T14:11:38.045Z,0.00
2023-05-25T14:14:13.734Z,0.00
2023-05-25T14:16:47.669Z,0.00
2023-05-25T14:19:17.007Z,0.00
2023-05-25T14:21:45.097Z,0.00
2023-05-25T14:24:14.589Z,0.00
2023-05-25T14:26:43.911Z,0.00
2023-05-25T14:29:12.943Z,0.00
2023-05-25T14:31:41.290Z,0.00
2023-05-25T14:34:09.605Z,0.00
2023-05-25T14:36:38.175Z,0.00
2023-05-25T14:39:06.241Z,0.00
2023-05-25T14:41:35.699Z,0.00
2023-05-25T14:44:04.080Z,0.00
2023-05-25T14:46:34.563Z,0.00
2023-05-25T14:49:02.729Z,0.00
2023-05-25T14:51:30.929Z,0.00
2023-05-25T14:54:00.590Z,0.00
2023-05-25T14:56:28.760Z,0.00
2023-05-25T14:58:58.109Z,0.00
2023-05-25T15:01:26.236Z,0.00
2023-05-25T15:03:54.377Z,0.00
2023-05-25T15:06:22.620Z,0.00
2023-05-25T15:08:50.568Z,0.00
2023-05-25T15:11:19.037Z,0.00
2023-05-25T15:13:47.012Z,0.00
2023-05-25T15:16:17.723Z,0.00
2023-05-25T15:18:46.117Z,0.00
2023-05-25T15:21:14.149Z,0.00
2023-05-25T15:23:42.260Z,0.00
2023-05-25T15:26:11.688Z,0.00
2023-05-25T15:28:39.681Z,0.00
2023-05-25T15:31:07.623Z,0.00
2023-05-25T15:33:49.559Z,0.00
2023-05-25T15:36:19.930Z,0.00
2023-05-25T15:38:49.446Z,0.00
2023-05-25T15:41:18.100Z,0.00
2023-05-25T15:43:52.387Z,0.00
2023-05-25T15:46:20.460Z,0.00
2023-05-25T15:48:49.809Z,0.00
2023-05-25T15:51:17.849Z,0.00
2023-05-25T15:53:46.037Z,0.00
2023-05-25T15:56:14.468Z,0.00
2023-05-25T15:58:42.350Z,0.00
2023-05-25T16:01:12.507Z,0.00
2023-05-25T16:03:43.445Z,0.00
2023-05-25T16:06:12.985Z,0.00
2023-05-25T16:08:41.250Z,0.00
2023-05-25T16:11:09.458Z,0.00
2023-05-25T16:13:37.822Z,0.00
2023-05-25T16:16:06.191Z,0.00
2023-05-25T16:18:34.349Z,0.00
2023-05-25T16:21:02.368Z,0.00
2023-05-25T16:23:31.685Z,0.00
2023-05-25T16:25:59.979Z,0.00
2023-05-25T16:28:28.223Z,0.00
2023-05-25T16:30:56.298Z,0.00
2023-05-25T16:33:24.243Z,0.00
2023-05-25T16:35:53.704Z,0.00
2023-05-25T16:38:21.710Z,0.00
2023-05-25T16:40:51.139Z,0.00
2023-05-25T16:43:19.306Z,0.00
2023-05-25T16:45:47.635Z,0.00
2023-05-25T16:48:16.285Z,0.00
2023-05-25T16:50:44.453Z,0.00
2023-05-25T16:53:12.532Z,0.00
2023-05-25T16:55:40.577Z,0.00
2023-05-25T16:58:09.958Z,0.00
2023-05-25T17:00:38.182Z,0.00
2023-05-25T17:03:07.014Z,0.00
2023-05-25T17:05:35.118Z,0.00
2023-05-25T17:08:03.124Z,0.00
2023-05-25T17:10:31.295Z,0.00
2023-05-25T17:12:59.333Z,0.00
2023-05-25T17:15:28.831Z,0.00
2023-05-25T17:17:57.058Z,0.00
2023-05-25T17:20:25.209Z,0.00
2023-05-25T17:22:53.584Z,0.00
2023-05-25T17:25:21.846Z,0.00
2023-05-25T17:27:49.874Z,0.00
2023-05-25T17:30:18.368Z,0.00
2023-05-25T17:32:47.851Z,0.00
2023-05-25T17:35:16.001Z,0.00
2023-05-25T17:37:43.984Z,0.00
2023-05-25T17:40:13.861Z,0.00
2023-05-25T17:42:42.167Z,0.00
2023-05-25T17:45:11.861Z,0.00
2023-05-25T17:47:39.950Z,0.00
2023-05-25T17:50:10.549Z,0.00
2023-05-25T17:52:38.908Z,0.00
2023-05-25T17:55:08.199Z,0.00
2023-05-25T17:57:36.376Z,0.00
2023-05-25T18:00:05.059Z,0.00
2023-05-25T18:02:46.756Z,0.00
2023-05-25T18:05:16.266Z,0.00
2023-05-25T18:07:44.420Z,0.00
2023-05-25T18:10:14.694Z,0.00
2023-05-25T18:12:44.571Z,0.00
2023-05-25T18:15:12.830Z,0.00
2023-05-25T18:17:41.120Z,0.00
2023-05-25T18:20:10.654Z,0.00
2023-05-25T18:22:40.150Z,0.00
2023-05-25T18:25:08.681Z,0.00
2023-05-25T18:27:36.803Z,0.00
2023-05-25T18:30:05.290Z,0.00
2023-05-25T18:32:33.266Z,0.00
2023-05-25T18:35:01.288Z,0.00
2023-05-25T18:37:31.205Z,0.00
2023-05-25T18:40:01.152Z,0.00
2023-05-25T18:42:29.196Z,0.00
2023-05-25T18:44:57.246Z,0.00
2023-05-25T18:47:25.366Z,0.10
2023-05-25T18:49:53.400Z,0.03
2023-05-25T18:52:21.676Z,0.00
2023-05-25T18:54:49.806Z,0.00
2023-05-25T18:57:19.164Z,0.00
2023-05-25T18:59:47.246Z,0.00
2023-05-25T19:02:15.490Z,0.10
2023-05-25T19:04:43.633Z,0.10
2023-05-25T19:07:11.655Z,0.00
2023-05-25T19:09:39.805Z,0.00
2023-05-25T19:12:08.346Z,0.00
2023-05-25T19:14:37.667Z,0.10
2023-05-25T19:17:06.029Z,0.08
2023-05-25T19:19:34.116Z,0.10
2023-05-25T19:22:02.222Z,0.05
2023-05-25T19:24:30.270Z,0.10
2023-05-25T19:26:58.370Z,0.10
2023-05-25T19:29:26.462Z,0.10
2023-05-25T19:31:55.912Z,0.00
2023-05-25T19:34:23.904Z,0.00
2023-05-25T19:37:00.086Z,0.10
2023-05-25T19:39:38.504Z,0.10
2023-05-25T19:42:06.806Z,0.00
2023-05-25T19:44:34.883Z,0.10
2023-05-25T19:47:04.316Z,0.10
2023-05-25T19:49:44.585Z,0.10
2023-05-25T19:52:13.701Z,0.10
2023-05-25T19:54:42.110Z,0.10
2023-05-25T19:57:10.086Z,0.10
2023-05-25T19:59:38.493Z,0.10
2023-05-25T20:02:09.307Z,0.10
2023-05-25T20:04:41.010Z,0.10
2023-05-25T20:07:09.374Z,0.10
2023-05-25T20:09:38.747Z,0.10
2023-05-25T20:12:07.618Z,0.10
2023-05-25T20:14:35.649Z,0.10
2023-05-25T20:17:04.093Z,0.10
2023-05-25T20:19:33.779Z,0.10
2023-05-25T20:22:02.752Z,0.10
2023-05-25T20:24:33.304Z,0.10
2023-05-25T20:27:01.907Z,0.10
2023-05-25T20:29:30.049Z,0.10
2023-05-25T20:31:58.423Z,0.10
2023-05-25T20:34:27.066Z,0.10
2023-05-25T20:36:57.050Z,0.10
2023-05-25T20:39:25.111Z,0.10
2023-05-25T20:41:53.150Z,0.10
2023-05-25T20:44:21.560Z,0.10
2023-05-25T20:46:49.620Z,0.10
2023-05-25T20:49:17.616Z,0.10
2023-05-25T20:51:50.041Z,0.10
2023-05-25T20:54:19.434Z,0.10
2023-05-25T20:56:48.243Z,0.20
2023-05-25T20:59:16.499Z,0.10
2023-05-25T21:01:45.299Z,0.10
2023-05-25T21:04:13.368Z,0.10
2023-05-25T21:06:41.642Z,0.20
2023-05-25T21:09:09.744Z,0.10
2023-05-25T21:11:39.346Z,0.20
2023-05-25T21:14:07.386Z,0.10
2023-05-25T21:16:36.113Z,0.10
2023-05-25T21:19:04.323Z,0.10
2023-05-25T21:21:34.141Z,0.10
2023-05-25T21:24:02.410Z,0.20
2023-05-25T21:26:31.188Z,0.10
2023-05-25T21:29:00.831Z,0.10
2023-05-25T21:31:29.101Z,0.15
2023-05-25T21:33:58.791Z,0.10
2023-05-25T21:36:28.889Z,0.20
2023-05-25T21:38:58.266Z,0.10
2023-05-25T21:41:27.220Z,0.10
2023-05-25T21:43:55.275Z,0.10
2023-05-25T21:46:25.237Z,0.20
2023-05-25T21:48:53.312Z,0.10
2023-05-25T21:51:21.437Z,0.20
2023-05-25T21:53:49.399Z,0.20
2023-05-25T21:56:17.691Z,0.20
2023-05-25T21:58:45.840Z,0.17
2023-05-25T22:01:13.827Z,0.17
2023-05-25T22:03:43.251Z,0.10
2023-05-25T22:06:11.485Z,0.10
2023-05-25T22:08:41.199Z,0.20
2023-05-25T22:11:09.958Z,0.20
2023-05-25T22:17:26.251Z,0.20
2023-05-25T22:22:37.774Z,0.10
2023-05-25T22:25:06.561Z,0.20
2023-05-25T22:27:34.792Z,0.10
2023-05-25T22:30:02.844Z,0.10
2023-05-25T22:32:31.245Z,0.20
2023-05-25T22:35:01.103Z,0.10
2023-05-25T22:37:29.088Z,0.20
2023-05-25T22:39:57.439Z,0.10
2023-05-25T22:42:25.426Z,0.10
2023-05-25T22:44:53.375Z,0.20
2023-05-25T22:47:21.298Z,0.10
2023-05-25T22:49:49.257Z,0.20
2023-05-25T22:52:18.622Z,0.20
2023-05-25T22:54:46.571Z,0.20
2023-05-25T22:57:14.619Z,0.10
2023-05-25T22:59:42.533Z,0.15
2023-05-25T23:02:10.674Z,0.17
2023-05-25T23:04:40.212Z,0.20
2023-05-25T23:07:08.138Z,0.20
2023-05-25T23:09:37.400Z,0.20
2023-05-25T23:12:06.431Z,0.20
2023-05-25T23:14:35.840Z,0.20
2023-05-25T23:17:03.743Z,0.10
2023-05-25T23:19:31.675Z,0.10
2023-05-25T23:21:59.838Z,0.13
2023-05-25T23:24:27.735Z,0.20
2023-05-25T23:26:57.295Z,0.10
2023-05-25T23:29:27.629Z,0.10
2023-05-25T23:31:55.699Z,0.10
2023-05-25T23:34:24.098Z,0.10
2023-05-25T23:36:54.156Z,0.10
2023-05-25T23:39:22.295Z,0.20
2023-05-25T23:41:50.289Z,0.20
2023-05-25T23:44:19.566Z,0.20
2023-05-25T23:46:47.519Z,0.10
2023-05-25T23:49:15.393Z,0.10
2023-05-25T23:51:43.392Z,0.20
2023-05-25T23:54:11.507Z,0.20
2023-05-25T23:56:39.427Z,0.20
2023-05-25T23:59:07.311Z,0.20
